sensor_id;sensor_type;location;lat;lon;timestamp;pressure;altitude;pressure_sealevel;temperature;humidity
79142;BME280;68550;-26.480;29.234;2023-09-07T00:01:40;84519.12;;;24.13;18.25
79142;BME280;68550;-26.480;29.234;2023-09-07T00:04:06;84505.63;;;24.19;19.01
79142;BME280;68550;-26.480;29.234;2023-09-07T00:08:56;84479.12;;;24.45;18.51
79142;BME280;68550;-26.480;29.234;2023-09-07T00:11:22;84489.41;;;24.48;18.23
79142;BME280;68550;-26.480;29.234;2023-09-07T00:18:39;84475.84;;;24.44;18.93
79142;BME280;68550;-26.480;29.234;2023-09-07T00:21:04;84468.27;;;24.41;18.85
79142;BME280;68550;-26.480;29.234;2023-09-07T00:23:30;84485.15;;;24.35;18.46
79142;BME280;68550;-26.480;29.234;2023-09-07T00:25:55;84483.38;;;24.09;19.13
79142;BME280;68550;-26.480;29.234;2023-09-07T00:28:20;84467.37;;;24.31;19.89
79142;BME280;68550;-26.480;29.234;2023-09-07T00:30:50;84437.74;;;24.07;19.34
79142;BME280;68550;-26.480;29.234;2023-09-07T00:35:37;84462.65;;;24.20;18.38
79142;BME280;68550;-26.480;29.234;2023-09-07T00:38:02;84456.34;;;24.24;18.86
79142;BME280;68550;-26.480;29.234;2023-09-07T00:47:45;84432.24;;;23.87;18.67
79142;BME280;68550;-26.480;29.234;2023-09-07T00:55:02;84447.91;;;24.07;18.33
79142;BME280;68550;-26.480;29.234;2023-09-07T00:57:26;84442.66;;;24.34;18.36
79142;BME280;68550;-26.480;29.234;2023-09-07T00:59:52;84440.90;;;24.25;18.47
79142;BME280;68550;-26.480;29.234;2023-09-07T01:02:17;84431.93;;;24.09;18.34
79142;BME280;68550;-26.480;29.234;2023-09-07T01:04:43;84433.87;;;23.96;18.32
79142;BME280;68550;-26.480;29.234;2023-09-07T01:09:41;84429.02;;;23.97;18.89
79142;BME280;68550;-26.480;29.234;2023-09-07T01:11:59;84437.71;;;24.22;19.00
79142;BME280;68550;-26.480;29.234;2023-09-07T01:14:25;84431.72;;;24.01;19.22
79142;BME280;68550;-26.480;29.234;2023-09-07T01:16:51;84430.73;;;24.17;19.29
79142;BME280;68550;-26.480;29.234;2023-09-07T01:19:17;84428.39;;;24.11;19.13
79142;BME280;68550;-26.480;29.234;2023-09-07T01:21:41;84430.72;;;24.13;19.18
79142;BME280;68550;-26.480;29.234;2023-09-07T01:24:08;84436.89;;;24.33;18.85
79142;BME280;68550;-26.480;29.234;2023-09-07T01:26:32;84444.07;;;24.07;18.76
79142;BME280;68550;-26.480;29.234;2023-09-07T01:28:58;84448.99;;;24.08;19.04
79142;BME280;68550;-26.480;29.234;2023-09-07T01:31:23;84451.85;;;24.07;19.11
79142;BME280;68550;-26.480;29.234;2023-09-07T01:36:14;84453.39;;;23.92;19.25
79142;BME280;68550;-26.480;29.234;2023-09-07T01:38:40;84458.66;;;24.15;18.86
79142;BME280;68550;-26.480;29.234;2023-09-07T01:43:33;84453.66;;;24.05;19.18
79142;BME280;68550;-26.480;29.234;2023-09-07T01:45:56;84450.01;;;24.06;19.17
79142;BME280;68550;-26.480;29.234;2023-09-07T01:50:47;84448.06;;;24.04;18.72
79142;BME280;68550;-26.480;29.234;2023-09-07T01:53:13;84449.18;;;23.81;18.87
79142;BME280;68550;-26.480;29.234;2023-09-07T01:58:18;84451.50;;;24.07;18.88
79142;BME280;68550;-26.480;29.234;2023-09-07T02:00:29;84453.22;;;24.05;18.79
79142;BME280;68550;-26.480;29.234;2023-09-07T02:02:54;84458.41;;;23.74;18.81
79142;BME280;68550;-26.480;29.234;2023-09-07T02:05:20;84458.52;;;23.79;19.29
79142;BME280;68550;-26.480;29.234;2023-09-07T02:07:47;84464.23;;;23.78;19.25
79142;BME280;68550;-26.480;29.234;2023-09-07T02:10:11;84471.14;;;23.71;19.08
79142;BME280;68550;-26.480;29.234;2023-09-07T02:12:36;84472.52;;;23.71;18.80
79142;BME280;68550;-26.480;29.234;2023-09-07T02:15:04;84477.10;;;23.65;18.68
79142;BME280;68550;-26.480;29.234;2023-09-07T02:17:27;84477.56;;;23.90;18.80
79142;BME280;68550;-26.480;29.234;2023-09-07T02:19:52;84481.95;;;23.17;18.79
79142;BME280;68550;-26.480;29.234;2023-09-07T02:22:13;84483.53;;;23.40;18.75
79142;BME280;68550;-26.480;29.234;2023-09-07T02:24:39;84489.58;;;23.25;18.97
79142;BME280;68550;-26.480;29.234;2023-09-07T02:27:04;84498.97;;;23.37;18.73
79142;BME280;68550;-26.480;29.234;2023-09-07T02:29:30;84496.24;;;23.52;18.39
79142;BME280;68550;-26.480;29.234;2023-09-07T02:31:56;84494.64;;;23.60;18.94
79142;BME280;68550;-26.480;29.234;2023-09-07T02:34:21;84496.11;;;23.50;19.15
79142;BME280;68550;-26.480;29.234;2023-09-07T02:36:46;84493.21;;;23.55;18.41
79142;BME280;68550;-26.480;29.234;2023-09-07T02:39:12;84491.70;;;23.53;18.50
79142;BME280;68550;-26.480;29.234;2023-09-07T02:41:37;84489.63;;;23.40;18.89
79142;BME280;68550;-26.480;29.234;2023-09-07T02:44:03;84498.30;;;23.52;18.76
79142;BME280;68550;-26.480;29.234;2023-09-07T02:46:28;84495.65;;;23.52;18.79
79142;BME280;68550;-26.480;29.234;2023-09-07T02:48:54;84499.53;;;23.54;18.65
79142;BME280;68550;-26.480;29.234;2023-09-07T02:51:20;84496.05;;;23.31;18.62
79142;BME280;68550;-26.480;29.234;2023-09-07T02:53:45;84494.11;;;23.46;18.54
79142;BME280;68550;-26.480;29.234;2023-09-07T02:56:13;84504.62;;;23.41;18.36
79142;BME280;68550;-26.480;29.234;2023-09-07T02:58:36;84507.24;;;23.35;18.52
79142;BME280;68550;-26.480;29.234;2023-09-07T03:01:06;84510.98;;;23.38;18.19
79142;BME280;68550;-26.480;29.234;2023-09-07T03:03:28;84510.26;;;23.68;18.30
79142;BME280;68550;-26.480;29.234;2023-09-07T03:05:52;84510.17;;;23.60;18.31
79142;BME280;68550;-26.480;29.234;2023-09-07T03:08:18;84511.82;;;23.63;18.53
79142;BME280;68550;-26.480;29.234;2023-09-07T03:10:46;84515.04;;;23.28;18.30
79142;BME280;68550;-26.480;29.234;2023-09-07T03:13:09;84517.25;;;23.59;18.22
79142;BME280;68550;-26.480;29.234;2023-09-07T03:15:35;84521.07;;;23.27;18.43
79142;BME280;68550;-26.480;29.234;2023-09-07T03:18:00;84522.01;;;23.28;18.14
79142;BME280;68550;-26.480;29.234;2023-09-07T03:20:25;84525.24;;;23.56;18.20
79142;BME280;68550;-26.480;29.234;2023-09-07T03:22:51;84524.11;;;23.23;18.10
79142;BME280;68550;-26.480;29.234;2023-09-07T03:25:17;84518.97;;;23.45;18.19
79142;BME280;68550;-26.480;29.234;2023-09-07T03:27:42;84521.10;;;23.14;18.33
79142;BME280;68550;-26.480;29.234;2023-09-07T03:30:08;84524.64;;;23.41;18.58
79142;BME280;68550;-26.480;29.234;2023-09-07T03:32:33;84523.69;;;23.14;18.94
79142;BME280;68550;-26.480;29.234;2023-09-07T03:35:02;84527.73;;;23.41;18.80
79142;BME280;68550;-26.480;29.234;2023-09-07T03:37:24;84530.93;;;23.20;18.61
79142;BME280;68550;-26.480;29.234;2023-09-07T03:39:50;84536.11;;;23.38;18.77
79142;BME280;68550;-26.480;29.234;2023-09-07T03:42:15;84536.08;;;23.40;18.57
79142;BME280;68550;-26.480;29.234;2023-09-07T03:44:41;84541.72;;;23.41;18.56
79142;BME280;68550;-26.480;29.234;2023-09-07T03:47:08;84540.05;;;23.34;18.39
79142;BME280;68550;-26.480;29.234;2023-09-07T03:49:32;84545.10;;;23.34;18.44
79142;BME280;68550;-26.480;29.234;2023-09-07T03:51:57;84546.33;;;23.09;18.24
79142;BME280;68550;-26.480;29.234;2023-09-07T03:54:23;84549.99;;;23.36;18.13
79142;BME280;68550;-26.480;29.234;2023-09-07T03:56:48;84553.24;;;23.27;18.26
79142;BME280;68550;-26.480;29.234;2023-09-07T03:59:14;84557.00;;;23.29;18.21
79142;BME280;68550;-26.480;29.234;2023-09-07T04:01:39;84556.86;;;23.18;18.48
79142;BME280;68550;-26.480;29.234;2023-09-07T04:04:04;84555.13;;;22.95;18.35
79142;BME280;68550;-26.480;29.234;2023-09-07T04:06:30;84563.03;;;23.19;18.47
79142;BME280;68550;-26.480;29.234;2023-09-07T04:08:55;84568.40;;;23.37;18.30
79142;BME280;68550;-26.480;29.234;2023-09-07T04:11:24;84566.15;;;23.34;18.50
79142;BME280;68550;-26.480;29.234;2023-09-07T04:13:46;84565.79;;;23.07;18.36
79142;BME280;68550;-26.480;29.234;2023-09-07T04:16:12;84569.24;;;23.23;18.35
79142;BME280;68550;-26.480;29.234;2023-09-07T04:18:37;84569.94;;;23.05;18.54
79142;BME280;68550;-26.480;29.234;2023-09-07T04:21:06;84571.37;;;22.97;18.41
79142;BME280;68550;-26.480;29.234;2023-09-07T04:23:30;84574.31;;;23.04;18.30
79142;BME280;68550;-26.480;29.234;2023-09-07T04:26:02;84571.09;;;23.00;18.60
79142;BME280;68550;-26.480;29.234;2023-09-07T04:28:20;84588.71;;;23.24;18.73
79142;BME280;68550;-26.480;29.234;2023-09-07T04:30:45;84582.95;;;23.25;18.55
79142;BME280;68550;-26.480;29.234;2023-09-07T04:33:10;84580.54;;;23.11;18.27
79142;BME280;68550;-26.480;29.234;2023-09-07T04:35:36;84577.36;;;23.08;18.33
79142;BME280;68550;-26.480;29.234;2023-09-07T04:38:01;84582.43;;;23.35;18.59
79142;BME280;68550;-26.480;29.234;2023-09-07T04:40:27;84583.04;;;23.05;18.46
79142;BME280;68550;-26.480;29.234;2023-09-07T04:42:52;84589.89;;;23.31;18.51
79142;BME280;68550;-26.480;29.234;2023-09-07T04:45:18;84592.72;;;23.28;18.16
79142;BME280;68550;-26.480;29.234;2023-09-07T04:47:47;84594.10;;;23.22;18.10
79142;BME280;68550;-26.480;29.234;2023-09-07T04:50:09;84597.57;;;22.94;18.05
79142;BME280;68550;-26.480;29.234;2023-09-07T04:52:34;84599.50;;;22.70;18.00
79142;BME280;68550;-26.480;29.234;2023-09-07T04:54:59;84602.35;;;23.05;18.22
79142;BME280;68550;-26.480;29.234;2023-09-07T04:57:25;84605.72;;;22.58;17.27
79142;BME280;68550;-26.480;29.234;2023-09-07T04:59:51;84608.26;;;21.72;15.99
79142;BME280;68550;-26.480;29.234;2023-09-07T05:02:15;84602.34;;;22.06;17.74
79142;BME280;68550;-26.480;29.234;2023-09-07T05:04:42;84604.98;;;22.34;18.61
79142;BME280;68550;-26.480;29.234;2023-09-07T05:07:07;84603.09;;;22.51;18.92
79142;BME280;68550;-26.480;29.234;2023-09-07T05:09:34;84602.66;;;22.83;18.99
79142;BME280;68550;-26.480;29.234;2023-09-07T05:12:02;84608.25;;;22.65;19.41
79142;BME280;68550;-26.480;29.234;2023-09-07T05:14:25;84611.41;;;22.71;19.70
79142;BME280;68550;-26.480;29.234;2023-09-07T05:16:49;84616.82;;;23.00;19.61
79142;BME280;68550;-26.480;29.234;2023-09-07T05:19:14;84618.92;;;22.74;20.06
79142;BME280;68550;-26.480;29.234;2023-09-07T05:21:39;84622.01;;;22.78;20.28
79142;BME280;68550;-26.480;29.234;2023-09-07T05:24:08;84624.06;;;20.29;17.15
79142;BME280;68550;-26.480;29.234;2023-09-07T05:26:31;84630.88;;;22.19;18.75
79142;BME280;68550;-26.480;29.234;2023-09-07T05:28:56;84640.28;;;22.44;19.33
79142;BME280;68550;-26.480;29.234;2023-09-07T05:31:21;84647.08;;;22.88;19.39
79142;BME280;68550;-26.480;29.234;2023-09-07T05:33:47;84655.13;;;22.81;19.36
79142;BME280;68550;-26.480;29.234;2023-09-07T05:36:14;84660.41;;;23.15;19.20
79142;BME280;68550;-26.480;29.234;2023-09-07T05:38:38;84668.16;;;23.10;19.24
79142;BME280;68550;-26.480;29.234;2023-09-07T05:41:03;84668.60;;;22.93;19.38
79142;BME280;68550;-26.480;29.234;2023-09-07T05:43:28;84676.02;;;22.69;19.19
79142;BME280;68550;-26.480;29.234;2023-09-07T05:45:54;84682.92;;;23.02;19.50
79142;BME280;68550;-26.480;29.234;2023-09-07T05:48:19;84688.71;;;23.09;18.97
79142;BME280;68550;-26.480;29.234;2023-09-07T05:50:45;84688.54;;;22.86;19.37
79142;BME280;68550;-26.480;29.234;2023-09-07T05:53:10;84690.71;;;23.11;19.44
79142;BME280;68550;-26.480;29.234;2023-09-07T05:55:36;84689.37;;;23.19;19.71
79142;BME280;68550;-26.480;29.234;2023-09-07T05:58:06;84689.07;;;23.11;19.30
79142;BME280;68550;-26.480;29.234;2023-09-07T06:00:27;84690.10;;;23.13;19.31
79142;BME280;68550;-26.480;29.234;2023-09-07T06:02:54;84694.41;;;23.07;19.77
79142;BME280;68550;-26.480;29.234;2023-09-07T06:05:17;84695.43;;;23.39;19.29
79142;BME280;68550;-26.480;29.234;2023-09-07T06:07:44;84696.58;;;22.90;19.31
79142;BME280;68550;-26.480;29.234;2023-09-07T06:10:09;84697.80;;;23.14;19.25
79142;BME280;68550;-26.480;29.234;2023-09-07T06:12:34;84698.97;;;23.26;19.48
79142;BME280;68550;-26.480;29.234;2023-09-07T06:15:01;84698.03;;;23.23;19.85
79142;BME280;68550;-26.480;29.234;2023-09-07T06:17:26;84699.18;;;23.08;19.80
79142;BME280;68550;-26.480;29.234;2023-09-07T06:19:50;84699.28;;;23.12;20.25
79142;BME280;68550;-26.480;29.234;2023-09-07T06:22:16;84702.49;;;23.49;20.67
79142;BME280;68550;-26.480;29.234;2023-09-07T06:24:41;84706.38;;;23.42;20.40
79142;BME280;68550;-26.480;29.234;2023-09-07T06:27:07;84708.18;;;23.47;20.27
79142;BME280;68550;-26.480;29.234;2023-09-07T06:29:32;84708.50;;;23.28;20.48
79142;BME280;68550;-26.480;29.234;2023-09-07T06:31:57;84703.38;;;23.52;20.37
79142;BME280;68550;-26.480;29.234;2023-09-07T06:34:23;84699.84;;;23.55;20.48
79142;BME280;68550;-26.480;29.234;2023-09-07T06:36:48;84696.59;;;23.56;20.16
79142;BME280;68550;-26.480;29.234;2023-09-07T06:39:18;84702.36;;;23.68;19.24
79142;BME280;68550;-26.480;29.234;2023-09-07T06:41:39;84700.62;;;23.62;19.80
79142;BME280;68550;-26.480;29.234;2023-09-07T06:44:04;84705.40;;;23.59;20.21
79142;BME280;68550;-26.480;29.234;2023-09-07T06:46:30;84709.76;;;23.74;19.76
79142;BME280;68550;-26.480;29.234;2023-09-07T06:48:55;84708.13;;;23.80;19.86
79142;BME280;68550;-26.480;29.234;2023-09-07T06:51:21;84708.76;;;23.58;19.76
79142;BME280;68550;-26.480;29.234;2023-09-07T06:53:47;84708.93;;;23.82;19.82
79142;BME280;68550;-26.480;29.234;2023-09-07T06:56:13;84710.45;;;23.75;19.82
79142;BME280;68550;-26.480;29.234;2023-09-07T06:58:37;84715.05;;;23.85;20.05
79142;BME280;68550;-26.480;29.234;2023-09-07T07:01:03;84716.86;;;23.98;19.97
79142;BME280;68550;-26.480;29.234;2023-09-07T07:17:43;84742.43;;;18.97;27.51
79142;BME280;68550;-26.480;29.234;2023-09-07T07:20:12;84735.88;;;20.53;25.41
79142;BME280;68550;-26.480;29.234;2023-09-07T07:27:41;84733.46;;;19.41;26.84
79142;BME280;68550;-26.480;29.234;2023-09-07T07:30:07;84726.94;;;20.72;25.53
79142;BME280;68550;-26.480;29.234;2023-09-07T07:39:48;84716.45;;;22.95;21.88
79142;BME280;68550;-26.480;29.234;2023-09-07T08:23:26;84655.62;;;24.40;20.65
79142;BME280;68550;-26.480;29.234;2023-09-07T08:37:59;84652.25;;;24.75;20.04
79142;BME280;68550;-26.480;29.234;2023-09-07T08:45:20;84644.61;;;23.30;20.33
79142;BME280;68550;-26.480;29.234;2023-09-07T08:47:42;84644.41;;;23.03;20.95
79142;BME280;68550;-26.480;29.234;2023-09-07T08:50:07;84639.78;;;25.72;19.45
79142;BME280;68550;-26.480;29.234;2023-09-07T08:52:32;84639.24;;;26.15;19.03
79142;BME280;68550;-26.480;29.234;2023-09-07T08:54:57;84640.02;;;24.36;20.10
79142;BME280;68550;-26.480;29.234;2023-09-07T08:57:23;84635.35;;;25.26;19.65
79142;BME280;68550;-26.480;29.234;2023-09-07T08:59:50;84629.29;;;25.46;19.35
79142;BME280;68550;-26.480;29.234;2023-09-07T09:02:13;84631.62;;;24.26;20.12
79142;BME280;68550;-26.480;29.234;2023-09-07T09:04:39;84630.01;;;25.08;19.34
79142;BME280;68550;-26.480;29.234;2023-09-07T09:07:07;84623.89;;;25.55;19.15
79142;BME280;68550;-26.480;29.234;2023-09-07T09:09:47;84616.02;;;25.44;19.75
79142;BME280;68550;-26.480;29.234;2023-09-07T09:28:56;84601.36;;;25.79;20.08
79142;BME280;68550;-26.480;29.234;2023-09-07T09:31:20;84595.28;;;25.30;19.80
79142;BME280;68550;-26.480;29.234;2023-09-07T09:33:59;84588.80;;;25.14;19.51
79142;BME280;68550;-26.480;29.234;2023-09-07T09:36:10;84590.92;;;24.94;20.00
79142;BME280;68550;-26.480;29.234;2023-09-07T09:41:11;84581.29;;;25.33;20.08
79142;BME280;68550;-26.480;29.234;2023-09-07T09:43:44;84575.80;;;25.29;21.30
79142;BME280;68550;-26.480;29.234;2023-09-07T09:45:53;84571.45;;;25.24;20.91
79142;BME280;68550;-26.480;29.234;2023-09-07T09:48:28;84569.72;;;25.28;20.63
79142;BME280;68550;-26.480;29.234;2023-09-07T09:53:32;84561.75;;;25.19;20.62
79142;BME280;68550;-26.480;29.234;2023-09-07T10:03:07;84550.91;;;25.25;21.06
79142;BME280;68550;-26.480;29.234;2023-09-07T10:05:19;84544.57;;;25.21;21.04
79142;BME280;68550;-26.480;29.234;2023-09-07T10:10:10;84534.09;;;24.30;21.93
79142;BME280;68550;-26.480;29.234;2023-09-07T10:12:40;84531.83;;;25.11;20.76
79142;BME280;68550;-26.480;29.234;2023-09-07T10:17:56;84518.22;;;24.97;19.04
79142;BME280;68550;-26.480;29.234;2023-09-07T10:20:13;84513.34;;;25.26;18.83
79142;BME280;68550;-26.480;29.234;2023-09-07T10:25:09;84512.15;;;25.05;18.44
79142;BME280;68550;-26.480;29.234;2023-09-07T10:27:06;84504.31;;;24.99;19.15
79142;BME280;68550;-26.480;29.234;2023-09-07T10:29:42;84499.47;;;24.70;18.91
79142;BME280;68550;-26.480;29.234;2023-09-07T10:31:56;84501.89;;;25.09;19.47
79142;BME280;68550;-26.480;29.234;2023-09-07T10:34:22;84493.19;;;24.97;19.93
79142;BME280;68550;-26.480;29.234;2023-09-07T10:36:48;84498.22;;;25.09;20.27
79142;BME280;68550;-26.480;29.234;2023-09-07T10:39:12;84498.78;;;24.78;21.45
79142;BME280;68550;-26.480;29.234;2023-09-07T10:41:42;84490.89;;;25.03;21.61
79142;BME280;68550;-26.480;29.234;2023-09-07T10:44:04;84488.89;;;24.76;21.78
79142;BME280;68550;-26.480;29.234;2023-09-07T10:46:54;84487.72;;;24.81;22.48
79142;BME280;68550;-26.480;29.234;2023-09-07T10:51:38;84482.68;;;25.16;22.73
79142;BME280;68550;-26.480;29.234;2023-09-07T10:56:34;84482.42;;;25.11;23.19
79142;BME280;68550;-26.480;29.234;2023-09-07T11:07:33;84466.42;;;24.53;24.31
79142;BME280;68550;-26.480;29.234;2023-09-07T11:12:21;84459.13;;;25.25;24.91
79142;BME280;68550;-26.480;29.234;2023-09-07T11:14:48;84457.70;;;25.30;25.53
79142;BME280;68550;-26.480;29.234;2023-09-07T11:17:12;84457.83;;;25.55;25.38
79142;BME280;68550;-26.480;29.234;2023-09-07T11:19:38;84457.97;;;25.13;25.22
79142;BME280;68550;-26.480;29.234;2023-09-07T11:22:02;84450.39;;;25.42;25.33
79142;BME280;68550;-26.480;29.234;2023-09-07T11:24:28;84446.80;;;25.31;25.47
79142;BME280;68550;-26.480;29.234;2023-09-07T11:26:53;84451.99;;;25.40;25.39
79142;BME280;68550;-26.480;29.234;2023-09-07T11:29:22;84447.68;;;25.13;25.06
79142;BME280;68550;-26.480;29.234;2023-09-07T11:31:44;84445.00;;;25.55;25.18
79142;BME280;68550;-26.480;29.234;2023-09-07T11:34:12;84444.47;;;25.57;24.93
79142;BME280;68550;-26.480;29.234;2023-09-07T11:36:35;84445.87;;;25.24;24.74
79142;BME280;68550;-26.480;29.234;2023-09-07T11:39:00;84435.79;;;25.42;24.60
79142;BME280;68550;-26.480;29.234;2023-09-07T11:41:26;84441.52;;;25.66;24.23
79142;BME280;68550;-26.480;29.234;2023-09-07T11:43:51;84437.13;;;25.59;24.04
79142;BME280;68550;-26.480;29.234;2023-09-07T11:46:17;84435.81;;;25.62;23.90
79142;BME280;68550;-26.480;29.234;2023-09-07T11:48:43;84433.30;;;25.32;23.83
79142;BME280;68550;-26.480;29.234;2023-09-07T11:51:07;84431.93;;;25.00;23.85
79142;BME280;68550;-26.480;29.234;2023-09-07T11:53:33;84422.48;;;25.44;24.33
79142;BME280;68550;-26.480;29.234;2023-09-07T11:55:59;84420.35;;;25.45;24.46
79142;BME280;68550;-26.480;29.234;2023-09-07T11:58:24;84420.95;;;25.49;25.27
79142;BME280;68550;-26.480;29.234;2023-09-07T12:00:49;84416.94;;;25.10;26.22
79142;BME280;68550;-26.480;29.234;2023-09-07T12:03:15;84414.29;;;25.48;25.50
79142;BME280;68550;-26.480;29.234;2023-09-07T12:05:39;84414.88;;;24.99;25.75
79142;BME280;68550;-26.480;29.234;2023-09-07T12:08:06;84407.65;;;25.07;25.86
79142;BME280;68550;-26.480;29.234;2023-09-07T12:10:30;84396.51;;;25.42;25.81
79142;BME280;68550;-26.480;29.234;2023-09-07T12:12:59;84408.10;;;25.54;25.26
79142;BME280;68550;-26.480;29.234;2023-09-07T12:15:21;84406.05;;;25.19;25.97
79142;BME280;68550;-26.480;29.234;2023-09-07T12:17:46;84402.21;;;24.81;26.80
79142;BME280;68550;-26.480;29.234;2023-09-07T12:20:12;84396.53;;;25.19;26.59
79142;BME280;68550;-26.480;29.234;2023-09-07T12:22:37;84396.51;;;25.18;26.13
79142;BME280;68550;-26.480;29.234;2023-09-07T12:25:05;84393.18;;;25.39;26.41
79142;BME280;68550;-26.480;29.234;2023-09-07T12:27:27;84397.30;;;25.48;26.52
79142;BME280;68550;-26.480;29.234;2023-09-07T12:29:52;84393.98;;;25.65;26.69
79142;BME280;68550;-26.480;29.234;2023-09-07T12:32:18;84392.20;;;25.27;26.71
79142;BME280;68550;-26.480;29.234;2023-09-07T12:34:44;84389.13;;;25.03;27.23
79142;BME280;68550;-26.480;29.234;2023-09-07T12:37:10;84391.59;;;25.31;26.96
79142;BME280;68550;-26.480;29.234;2023-09-07T12:39:35;84390.80;;;25.00;26.38
79142;BME280;68550;-26.480;29.234;2023-09-07T12:42:00;84389.77;;;25.45;26.23
79142;BME280;68550;-26.480;29.234;2023-09-07T12:44:25;84389.00;;;25.52;26.12
79142;BME280;68550;-26.480;29.234;2023-09-07T12:46:51;84387.45;;;25.29;25.60
79142;BME280;68550;-26.480;29.234;2023-09-07T12:49:16;84394.95;;;25.66;25.26
79142;BME280;68550;-26.480;29.234;2023-09-07T12:51:45;84389.61;;;25.48;25.46
79142;BME280;68550;-26.480;29.234;2023-09-07T12:54:07;84385.18;;;25.19;25.00
79142;BME280;68550;-26.480;29.234;2023-09-07T12:56:32;84382.39;;;25.31;24.83
79142;BME280;68550;-26.480;29.234;2023-09-07T12:58:57;84384.12;;;25.65;24.92
79142;BME280;68550;-26.480;29.234;2023-09-07T13:01:23;84381.78;;;25.25;24.64
79142;BME280;68550;-26.480;29.234;2023-09-07T13:03:49;84384.93;;;25.53;24.22
79142;BME280;68550;-26.480;29.234;2023-09-07T13:06:14;84385.76;;;25.48;24.18
79142;BME280;68550;-26.480;29.234;2023-09-07T13:08:40;84389.15;;;25.63;23.96
79142;BME280;68550;-26.480;29.234;2023-09-07T13:11:05;84388.69;;;25.25;24.01
79142;BME280;68550;-26.480;29.234;2023-09-07T13:13:30;84390.07;;;25.53;23.60
79142;BME280;68550;-26.480;29.234;2023-09-07T13:15:55;84384.22;;;25.18;22.84
79142;BME280;68550;-26.480;29.234;2023-09-07T13:18:20;84380.21;;;25.51;23.15
79142;BME280;68550;-26.480;29.234;2023-09-07T13:20:46;84381.87;;;24.65;23.52
79142;BME280;68550;-26.480;29.234;2023-09-07T13:23:11;84383.88;;;25.06;23.05
79142;BME280;68550;-26.480;29.234;2023-09-07T13:25:36;84382.39;;;24.86;22.73
79142;BME280;68550;-26.480;29.234;2023-09-07T13:28:04;84391.03;;;25.24;21.82
79142;BME280;68550;-26.480;29.234;2023-09-07T13:30:29;84387.24;;;25.35;20.93
79142;BME280;68550;-26.480;29.234;2023-09-07T13:32:52;84378.53;;;25.39;20.85
79142;BME280;68550;-26.480;29.234;2023-09-07T13:35:17;84384.94;;;25.21;20.54
79142;BME280;68550;-26.480;29.234;2023-09-07T13:37:43;84384.91;;;25.29;20.59
79142;BME280;68550;-26.480;29.234;2023-09-07T13:40:09;84386.50;;;24.89;20.14
79142;BME280;68550;-26.480;29.234;2023-09-07T13:42:35;84388.23;;;25.23;20.25
79142;BME280;68550;-26.480;29.234;2023-09-07T13:44:58;84387.51;;;25.00;20.26
79142;BME280;68550;-26.480;29.234;2023-09-07T13:47:24;84385.63;;;25.29;20.16
79142;BME280;68550;-26.480;29.234;2023-09-07T13:49:50;84381.93;;;25.33;20.45
79142;BME280;68550;-26.480;29.234;2023-09-07T13:52:15;84384.32;;;25.34;20.63
79142;BME280;68550;-26.480;29.234;2023-09-07T13:54:42;84384.86;;;25.11;20.53
79142;BME280;68550;-26.480;29.234;2023-09-07T13:57:06;84380.72;;;25.34;20.74
79142;BME280;68550;-26.480;29.234;2023-09-07T13:59:31;84390.20;;;25.25;20.46
79142;BME280;68550;-26.480;29.234;2023-09-07T14:01:56;84388.00;;;24.99;20.26
79142;BME280;68550;-26.480;29.234;2023-09-07T14:04:22;84388.00;;;25.16;20.04
79142;BME280;68550;-26.480;29.234;2023-09-07T14:06:49;84391.41;;;25.23;19.53
79142;BME280;68550;-26.480;29.234;2023-09-07T14:09:14;84395.41;;;25.03;20.12
79142;BME280;68550;-26.480;29.234;2023-09-07T14:11:39;84392.09;;;25.27;19.89
79142;BME280;68550;-26.480;29.234;2023-09-07T14:14:06;84396.02;;;25.21;19.43
79142;BME280;68550;-26.480;29.234;2023-09-07T14:16:30;84398.48;;;25.03;19.39
79142;BME280;68550;-26.480;29.234;2023-09-07T14:18:59;84396.72;;;24.82;19.10
79142;BME280;68550;-26.480;29.234;2023-09-07T14:21:21;84397.03;;;25.18;19.45
79142;BME280;68550;-26.480;29.234;2023-09-07T14:23:46;84398.72;;;25.22;19.93
79142;BME280;68550;-26.480;29.234;2023-09-07T14:26:11;84400.55;;;25.25;19.84
79142;BME280;68550;-26.480;29.234;2023-09-07T14:28:36;84398.92;;;25.05;19.97
79142;BME280;68550;-26.480;29.234;2023-09-07T14:31:02;84404.30;;;25.25;19.80
79142;BME280;68550;-26.480;29.234;2023-09-07T14:33:27;84405.74;;;24.74;19.49
79142;BME280;68550;-26.480;29.234;2023-09-07T14:35:52;84407.46;;;25.26;19.32
79142;BME280;68550;-26.480;29.234;2023-09-07T14:38:18;84408.77;;;25.09;19.72
79142;BME280;68550;-26.480;29.234;2023-09-07T14:40:43;84411.20;;;25.05;19.55
79142;BME280;68550;-26.480;29.234;2023-09-07T14:43:11;84411.70;;;25.24;19.50
79142;BME280;68550;-26.480;29.234;2023-09-07T14:45:34;84410.37;;;24.93;19.21
79142;BME280;68550;-26.480;29.234;2023-09-07T14:47:59;84415.79;;;25.21;19.20
79142;BME280;68550;-26.480;29.234;2023-09-07T14:50:25;84413.31;;;25.25;19.64
79142;BME280;68550;-26.480;29.234;2023-09-07T14:52:50;84416.63;;;25.08;19.81
79142;BME280;68550;-26.480;29.234;2023-09-07T14:55:20;84415.81;;;25.21;19.76
79142;BME280;68550;-26.480;29.234;2023-09-07T14:57:41;84417.25;;;25.24;19.71
79142;BME280;68550;-26.480;29.234;2023-09-07T15:00:08;84418.35;;;25.03;19.72
79142;BME280;68550;-26.480;29.234;2023-09-07T15:04:19;84423.79;;;23.43;21.00
79142;BME280;68550;-26.480;29.234;2023-09-07T15:06:43;84425.23;;;24.00;20.69
79142;BME280;68550;-26.480;29.234;2023-09-07T15:28:31;84432.75;;;25.13;19.68
79142;BME280;68550;-26.480;29.234;2023-09-07T15:38:13;84442.62;;;24.55;20.14
79142;BME280;68550;-26.480;29.234;2023-09-07T15:40:53;84444.66;;;25.27;19.54
79142;BME280;68550;-26.480;29.234;2023-09-07T15:43:09;84445.27;;;25.19;19.90
79142;BME280;68550;-26.480;29.234;2023-09-07T15:45:30;84447.21;;;25.35;20.13
79142;BME280;68550;-26.480;29.234;2023-09-07T15:52:46;84443.31;;;25.36;20.46
79142;BME280;68550;-26.480;29.234;2023-09-07T15:55:12;84446.65;;;25.20;20.67